Bei Facebook empfehlenBei Twitter postenGoogle plusPinterest

Das Wetter im Erzgebirge am 03.09.2016

Wetter und Klima am 03.09.2016 Holzhau im Erzgebirge (630m ü.NN)
Letzte gemessene Temperatur und Uhrzeit der Messung23:45:00 Uhr11.30 °C
Temperatur (Maximum / Höchstwert) und Uhrzeit der Messung14:00:00 Uhr25.40 °C
Temperatur (Minimum / Tiefstwert) und Uhrzeit der Messung03:30:0010.70 °C
Errechneter Absolutwert der Temperaturschwankungen zwischen Tmin und Tmax des Tages14.70 K
Errechnete Tagesmitteltemperatur16.67083 °C
Gesamt - Niederschlag des Tages (in flüssiger Form)0.00 Liter / m²
Luftdruck (Maximum / Höchstwert) und Zeitpunkt der Messung00:00:00 Uhr1017.40 hPa
Luftdruck (Minimum / Tiefstwert) und Zeitpunkt der Messung23:45:00 Uhr1014.40 hPa
Errechneter Absolutwert der Luftdruckschwankungen des Tages3.00 hPa
Höchste gemessene Windgeschwindigkeit und Uhrzeit der Messung23:45:00 Uhr0.00 km/h
Errechnete Windhäufigkeit in Relation zu den Messwerten des Tages0.00000 %
Niedrigste Windkühle (Windchill) und Zeitpunkt der Messung03:30:00 Uhr10.70 °C
Taupunkt (Maximum / Höchstwert) und Uhrzeit der Messung10:00:00 Uhr17.00 °C
Taupunkt (Minimum / Tiefstwert) und Uhrzeit der Messung01:30:008.80 °C
Anzahl der automatisch eingelesenen Messwerte 96

Detaillierte Wetter- und Klima- Messwerte für den 03.09.2016 in Holzhau im Erzgebirge (630m ü.NN)
ZeitTemperaturLuftdruckRel. LuftfeuchteWindWindrichtungWindchillTaupunktNiederschlag l/m²
23:45:0011.30 °C1014.40 hPa86.00 %9.00 °C 
23:30:0011.40 °C1014.40 hPa86.00 %9.10 °C 
23:15:0011.50 °C1014.50 hPa85.00 %9.10 °C 
23:00:0011.60 °C1014.80 hPa85.00 %9.20 °C 
22:45:0011.60 °C1014.70 hPa84.00 %9.00 °C 
22:30:0011.80 °C1014.90 hPa83.00 %9.00 °C 
22:15:0012.10 °C1014.80 hPa83.00 %9.30 °C 
22:00:0012.30 °C1014.70 hPa82.00 %9.30 °C 
21:45:0012.40 °C1014.80 hPa81.00 %9.20 °C 
21:30:0012.80 °C1014.90 hPa80.00 %9.40 °C 
21:15:0013.20 °C1015.00 hPa79.00 %9.60 °C 
21:00:0013.40 °C1015.00 hPa78.00 %9.60 °C 
20:45:0013.60 °C1015.00 hPa76.00 %9.50 °C 
20:30:0014.20 °C1014.90 hPa75.00 %9.80 °C 
20:15:0014.90 °C1014.90 hPa73.00 %10.10 °C 
20:00:0015.80 °C1014.90 hPa71.00 %10.60 °C 
19:45:0016.90 °C1014.80 hPa69.00 %11.20 °C 
19:30:0017.80 °C1014.80 hPa67.00 %11.60 °C 
19:15:0018.70 °C1014.90 hPa66.00 %12.20 °C 
19:00:0019.80 °C1015.10 hPa64.00 %12.80 °C 
18:45:0020.60 °C1015.10 hPa61.00 %12.80 °C 
18:30:0021.30 °C1015.20 hPa59.00 %13.00 °C 
18:15:0021.80 °C1015.30 hPa57.00 %12.90 °C 
18:00:0022.30 °C1015.60 hPa56.00 %13.10 °C 
17:45:0022.60 °C1015.50 hPa56.00 %13.40 °C 
17:30:0022.80 °C1015.40 hPa56.00 %13.60 °C 
17:15:0022.90 °C1015.60 hPa55.00 %13.40 °C 
17:00:0023.30 °C1015.60 hPa53.00 %13.20 °C 
16:45:0024.10 °C1015.70 hPa53.00 %13.90 °C 
16:30:0024.90 °C1015.60 hPa54.00 %15.00 °C 
16:15:0025.30 °C1015.70 hPa54.00 %15.30 °C 
16:00:0024.90 °C1015.80 hPa55.00 %15.20 °C 
15:45:0024.50 °C1015.80 hPa56.00 %15.10 °C 
15:30:0024.30 °C1015.80 hPa55.00 %14.70 °C 
15:15:0024.20 °C1015.80 hPa55.00 %14.60 °C 
15:00:0024.10 °C1016.00 hPa55.00 %14.50 °C 
14:45:0024.20 °C1015.90 hPa56.00 %14.90 °C 
14:30:0024.10 °C1016.00 hPa55.00 %14.50 °C 
14:15:0024.60 °C1016.00 hPa54.00 %14.70 °C 
14:00:0025.40 °C1016.00 hPa54.00 %15.40 °C 
13:45:0025.00 °C1016.10 hPa56.00 %15.60 °C 
13:30:0024.80 °C1015.90 hPa55.00 %15.10 °C 
13:15:0024.80 °C1016.10 hPa56.00 %15.40 °C 
13:00:0024.70 °C1016.20 hPa57.00 %15.60 °C 
12:45:0024.30 °C1016.20 hPa57.00 %15.20 °C 
12:30:0024.10 °C1016.40 hPa59.00 %15.60 °C 
12:15:0023.60 °C1016.20 hPa61.00 %15.60 °C 
12:00:0022.80 °C1016.20 hPa64.00 %15.60 °C 
11:45:0021.80 °C1016.20 hPa66.00 %15.20 °C 
11:30:0021.30 °C1016.40 hPa67.00 %14.90 °C 
11:15:0021.10 °C1016.40 hPa68.00 %15.00 °C 
11:00:0020.80 °C1016.50 hPa70.00 %15.10 °C 
10:45:0020.40 °C1016.50 hPa72.00 %15.20 °C 
10:30:0020.70 °C1016.40 hPa74.00 %15.90 °C 
10:15:0020.50 °C1016.40 hPa79.00 %16.70 °C 
10:00:0019.80 °C1016.20 hPa84.00 %17.00 °C 
09:45:0018.70 °C1016.30 hPa88.00 %16.70 °C 
09:30:0017.80 °C1016.50 hPa89.00 %16.00 °C 
09:15:0016.90 °C1016.30 hPa90.00 %15.20 °C 
09:00:0016.10 °C1016.20 hPa91.00 %14.60 °C 
08:45:0014.90 °C1016.10 hPa92.00 %13.60 °C 
08:30:0013.90 °C1015.90 hPa91.00 %12.50 °C 
08:15:0013.30 °C1016.10 hPa91.00 %11.90 °C 
08:00:0013.10 °C1015.80 hPa92.00 %11.80 °C 
07:45:0012.70 °C1015.90 hPa91.00 %11.30 °C 
07:30:0012.40 °C1016.00 hPa91.00 %11.00 °C 
07:15:0012.20 °C1015.90 hPa91.00 %10.80 °C 
07:00:0011.90 °C1016.00 hPa91.00 %10.50 °C 
06:45:0011.90 °C1016.00 hPa91.00 %10.50 °C 
06:30:0011.80 °C1015.90 hPa91.00 %10.40 °C 
06:15:0011.90 °C1016.00 hPa91.00 %10.50 °C 
06:00:0011.90 °C1015.90 hPa91.00 %10.50 °C 
05:45:0011.90 °C1015.90 hPa91.00 %10.50 °C 
05:30:0011.80 °C1015.90 hPa91.00 %10.40 °C 
05:15:0011.90 °C1015.90 hPa91.00 %10.50 °C 
05:00:0011.90 °C1015.90 hPa91.00 %10.50 °C 
04:45:0011.80 °C1015.70 hPa91.00 %10.40 °C 
04:30:0011.50 °C1015.90 hPa91.00 %10.10 °C 
04:15:0011.30 °C1015.90 hPa91.00 %9.90 °C 
04:00:0011.10 °C1016.00 hPa91.00 %9.70 °C 
03:45:0010.90 °C1015.90 hPa91.00 %9.50 °C 
03:30:0010.70 °C1016.10 hPa90.00 %9.10 °C 
03:15:0010.70 °C1016.10 hPa90.00 %9.10 °C 
03:00:0010.90 °C1016.10 hPa90.00 %9.30 °C 
02:45:0011.10 °C1016.20 hPa90.00 %9.50 °C 
02:30:0010.80 °C1016.50 hPa89.00 %9.10 °C 
02:15:0010.90 °C1016.60 hPa89.00 %9.20 °C 
02:00:0010.90 °C1016.60 hPa89.00 %9.20 °C 
01:45:0010.90 °C1016.70 hPa88.00 %9.00 °C 
01:30:0010.70 °C1016.70 hPa88.00 %8.80 °C 
01:15:0010.90 °C1016.90 hPa88.00 %9.00 °C 
01:00:0010.90 °C1017.10 hPa88.00 %9.00 °C 
00:45:0011.30 °C1017.00 hPa88.00 %9.40 °C 
00:30:0011.30 °C1017.10 hPa87.00 %9.20 °C 
00:15:0011.30 °C1017.10 hPa86.00 %9.00 °C 
00:00:0011.80 °C1017.40 hPa86.00 %9.50 °C 

Permanenter Link zu dieser Seite: Wetter im Erzgebirge am 03.09.2016
Performance-Info: Die Erstellung der Seite / Statistik(en) / Tabelle(n) erforderte 5 Datenbankserver-Abfrage(n) und dauerte 102 Millisekunden. (Dieser Messwert ist von der Gesamt-Auslastung des Servers abhängig.)
Erzgebirge - Wetter | Erzgebirge - Wetter (Mobilgeräte) | Komplette Klimadatenbank